Louis, Missouri
Current Conditions -  °F | °C
As of 8:53 PM on Sunday 23 Nov 2014 (Local Time) from KCPS Reporting Station
Haze Haze  
Wind Chill: 55°   Ceiling: 500
Heat Index: 55°   Visibility: 4mi
Dew Point: 54°   Wind: 3mph
Humidity: 96%   Direction: 220°SW
Pressure: 29.25"   Gusts: NA
Location:  38.6578°N, 90.2474°W
Report Text: KCPS 240253Z 22003KT 4SM BR BKN005 OVC010 13/12 A2925 RMK AO2 SLP904 60004 T01280122 56016
Loading
Personal Weather Stations






























Interactive Weather Map New forecast layout! Learn more

10-Day Weather Forecast

Advertisements
Track Severe Weather on mobile